createdAt,value
2023-01-04T00:00:47.001Z,1.60
2023-01-04T00:03:13.770Z,2.03
2023-01-04T00:05:40.489Z,1.70
2023-01-04T00:08:07.079Z,1.40
2023-01-04T00:10:33.743Z,1.50
2023-01-04T00:13:00.388Z,1.35
2023-01-04T00:15:27.043Z,1.35
2023-01-04T00:17:53.475Z,1.50
2023-01-04T00:20:20.066Z,1.50
2023-01-04T00:22:46.637Z,1.27
2023-01-04T00:25:13.244Z,1.27
2023-01-04T00:27:39.715Z,1.75
2023-01-04T00:30:06.656Z,1.48
2023-01-04T00:32:33.087Z,1.10
2023-01-04T00:34:59.701Z,1.50
2023-01-04T00:37:26.295Z,1.50
2023-01-04T00:39:52.781Z,1.42
2023-01-04T00:42:19.306Z,1.50
2023-01-04T00:44:45.962Z,1.40
2023-01-04T00:47:12.386Z,1.83
2023-01-04T00:49:38.796Z,1.23
2023-01-04T00:52:05.465Z,1.70
2023-01-04T00:54:32.013Z,1.70
2023-01-04T00:56:58.700Z,1.40
2023-01-04T00:59:25.327Z,1.63
2023-01-04T01:01:52.257Z,1.63
2023-01-04T01:04:22.280Z,1.35
2023-01-04T01:06:49.766Z,1.58
2023-01-04T01:09:17.163Z,1.30
2023-01-04T01:11:43.934Z,1.30
2023-01-04T01:14:17.293Z,1.40
2023-01-04T01:16:54.954Z,1.42
2023-01-04T01:19:22.967Z,1.35
2023-01-04T01:21:49.434Z,1.70
2023-01-04T01:24:18.449Z,1.58
2023-01-04T01:26:45.621Z,1.60
2023-01-04T01:29:12.462Z,1.50
2023-01-04T01:31:40.975Z,1.30
2023-01-04T01:36:34.430Z,1.35
2023-01-04T01:39:01.074Z,1.20
2023-01-04T01:41:30.583Z,1.30
2023-01-04T01:43:59.555Z,1.40
2023-01-04T01:46:37.234Z,1.55
2023-01-04T01:49:28.860Z,1.45
2023-01-04T01:51:58.002Z,1.40
2023-01-04T01:54:28.834Z,1.30
2023-01-04T01:57:00.104Z,1.80
2023-01-04T01:59:28.699Z,1.52
2023-01-04T02:01:55.381Z,1.30
2023-01-04T02:04:21.907Z,1.30
2023-01-04T02:06:57.509Z,1.85
2023-01-04T02:09:24.432Z,1.27
2023-01-04T02:11:51.234Z,1.48
2023-01-04T02:14:29.381Z,1.70
2023-01-04T02:17:14.026Z,1.20
2023-01-04T02:20:07.764Z,1.27
2023-01-04T02:22:58.786Z,1.52
2023-01-04T02:25:53.370Z,1.73
2023-01-04T02:28:48.863Z,1.20
2023-01-04T02:31:30.496Z,1.42
2023-01-04T02:34:28.151Z,1.50
2023-01-04T02:37:05.672Z,1.27
2023-01-04T02:39:46.069Z,1.38
2023-01-04T02:42:58.284Z,1.20
2023-01-04T02:45:37.219Z,1.95
2023-01-04T02:48:26.918Z,1.33
2023-01-04T02:50:57.186Z,1.95
2023-01-04T02:53:42.231Z,1.30
2023-01-04T02:56:16.765Z,1.52
2023-01-04T02:59:04.416Z,1.35
2023-01-04T03:01:58.435Z,1.20
2023-01-04T03:04:59.416Z,1.52
2023-01-04T03:07:50.125Z,1.60
2023-01-04T03:10:40.966Z,1.55
2023-01-04T03:13:23.462Z,1.50
2023-01-04T03:15:54.808Z,1.48
2023-01-04T03:18:26.313Z,1.42
2023-01-04T03:20:55.902Z,1.55
2023-01-04T03:23:44.906Z,1.35
2023-01-04T03:26:35.979Z,1.33
2023-01-04T03:29:49.698Z,1.30
2023-01-04T03:32:42.059Z,1.17
2023-01-04T03:35:23.577Z,1.30
2023-01-04T03:41:10.024Z,1.02
2023-01-04T03:44:01.690Z,1.08
2023-01-04T03:46:51.300Z,1.15
2023-01-04T03:49:33.650Z,1.00
2023-01-04T03:52:04.171Z,0.82
2023-01-04T03:54:36.830Z,0.73
2023-01-04T03:57:04.922Z,0.75
2023-01-04T03:59:37.010Z,0.60
2023-01-04T04:02:03.699Z,0.65
2023-01-04T04:04:48.899Z,0.60
2023-01-04T04:07:34.028Z,0.50
2023-01-04T04:10:00.624Z,0.80
2023-01-04T04:12:27.072Z,0.65
2023-01-04T04:14:53.462Z,0.88
2023-01-04T04:17:20.028Z,0.70
2023-01-04T04:19:46.418Z,0.60
2023-01-04T04:22:12.855Z,0.50
2023-01-04T04:24:39.343Z,0.70
2023-01-04T04:27:05.807Z,0.60
2023-01-04T04:29:32.242Z,0.50
2023-01-04T04:31:58.865Z,0.70
2023-01-04T04:34:25.389Z,0.70
2023-01-04T04:36:52.009Z,0.50
2023-01-04T04:39:18.695Z,0.52
2023-01-04T04:41:45.379Z,0.65
2023-01-04T04:44:15.145Z,0.40
2023-01-04T04:46:42.605Z,0.50
2023-01-04T04:49:10.142Z,1.05
2023-01-04T04:51:37.838Z,0.55
2023-01-04T04:54:05.311Z,0.52
2023-01-04T04:56:31.840Z,0.40
2023-01-04T04:58:58.516Z,0.50
2023-01-04T05:01:25.055Z,0.65
2023-01-04T05:03:51.611Z,0.70
2023-01-04T05:06:18.074Z,0.60
2023-01-04T05:08:44.735Z,0.60
2023-01-04T05:11:12.650Z,0.60
2023-01-04T05:13:39.120Z,0.50
2023-01-04T05:16:07.720Z,0.70
2023-01-04T05:21:00.938Z,0.60
2023-01-04T05:23:27.576Z,0.55
2023-01-04T05:25:58.116Z,0.55
2023-01-04T05:28:24.694Z,0.40
2023-01-04T05:30:52.238Z,0.60
2023-01-04T05:33:20.984Z,0.40
2023-01-04T05:35:47.757Z,0.50
2023-01-04T05:38:14.545Z,0.50
2023-01-04T05:40:41.536Z,0.57
2023-01-04T05:43:08.060Z,0.50
2023-01-04T05:45:35.896Z,0.70
2023-01-04T05:48:02.696Z,0.50
2023-01-04T05:50:29.277Z,0.40
2023-01-04T05:53:04.119Z,0.65
2023-01-04T05:55:30.552Z,0.60
2023-01-04T05:57:56.997Z,0.50
2023-01-04T06:00:23.491Z,0.70
2023-01-04T06:02:52.607Z,0.50
2023-01-04T06:05:20.390Z,0.60
2023-01-04T06:07:46.935Z,0.60
2023-01-04T06:10:14.181Z,0.77
2023-01-04T06:12:41.167Z,0.32
2023-01-04T06:15:09.392Z,0.50
2023-01-04T06:17:36.557Z,0.60
2023-01-04T06:20:04.364Z,0.65
2023-01-04T06:22:31.065Z,0.50
2023-01-04T06:24:57.717Z,0.50
2023-01-04T06:27:24.447Z,0.50
2023-01-04T06:29:51.313Z,0.60
2023-01-04T06:32:17.746Z,0.50
2023-01-04T06:34:44.772Z,0.80
2023-01-04T06:37:11.945Z,0.57
2023-01-04T06:39:38.564Z,0.43
2023-01-04T06:42:07.150Z,0.47
2023-01-04T06:44:34.160Z,0.70
2023-01-04T06:47:00.817Z,0.45
2023-01-04T06:49:27.509Z,0.47
2023-01-04T06:51:53.917Z,0.60
2023-01-04T06:54:20.435Z,0.80
2023-01-04T06:56:46.914Z,0.55
2023-01-04T06:59:13.374Z,0.52
2023-01-04T07:01:39.929Z,0.70
2023-01-04T07:04:06.656Z,0.55
2023-01-04T07:06:34.268Z,1.50
2023-01-04T07:09:00.818Z,0.57
2023-01-04T07:11:27.416Z,0.77
2023-01-04T07:13:53.920Z,0.60
2023-01-04T07:16:20.589Z,0.70
2023-01-04T07:18:47.528Z,0.60
2023-01-04T07:21:14.550Z,0.55
2023-01-04T07:23:41.219Z,0.60
2023-01-04T07:26:08.055Z,0.80
2023-01-04T07:28:53.320Z,0.52
2023-01-04T07:31:20.201Z,0.70
2023-01-04T07:33:49.513Z,0.50
2023-01-04T07:36:16.975Z,0.50
2023-01-04T07:38:44.798Z,0.60
2023-01-04T07:41:11.805Z,0.65
2023-01-04T07:43:38.427Z,0.40
2023-01-04T07:46:04.957Z,0.50
2023-01-04T07:48:31.535Z,0.40
2023-01-04T07:50:58.177Z,0.60
2023-01-04T07:53:24.694Z,0.60
2023-01-04T07:55:56.722Z,0.70
2023-01-04T07:58:23.512Z,0.50
2023-01-04T08:00:50.696Z,0.35
2023-01-04T08:03:17.490Z,0.47
2023-01-04T08:05:43.973Z,0.70
2023-01-04T08:08:10.570Z,0.60
2023-01-04T08:10:37.106Z,0.70
2023-01-04T08:13:03.867Z,0.40
2023-01-04T08:15:30.373Z,0.52
2023-01-04T08:17:56.996Z,0.50
2023-01-04T08:20:24.303Z,0.50
2023-01-04T08:22:50.739Z,0.68
2023-01-04T08:25:17.409Z,0.60
2023-01-04T08:27:44.501Z,0.50
2023-01-04T08:30:11.353Z,0.60
2023-01-04T08:32:39.464Z,0.57
2023-01-04T08:35:06.290Z,0.75
2023-01-04T08:37:33.977Z,0.50
2023-01-04T08:40:00.980Z,0.47
2023-01-04T08:42:31.567Z,0.60
2023-01-04T08:45:01.057Z,0.50
2023-01-04T08:47:29.820Z,0.70
2023-01-04T08:49:56.621Z,0.60
2023-01-04T08:52:23.319Z,0.70
2023-01-04T08:54:50.244Z,0.70
2023-01-04T08:57:17.909Z,0.73
2023-01-04T08:59:44.599Z,0.50
2023-01-04T09:02:29.465Z,0.82
2023-01-04T09:04:59.941Z,0.70
2023-01-04T09:07:29.291Z,0.70
2023-01-04T09:09:55.765Z,0.60
2023-01-04T09:12:22.346Z,0.43
2023-01-04T09:14:49.064Z,0.60
2023-01-04T09:17:15.585Z,0.60
2023-01-04T09:19:42.253Z,0.70
2023-01-04T09:22:09.594Z,0.70
2023-01-04T09:24:36.124Z,0.75
2023-01-04T09:27:04.598Z,0.60
2023-01-04T09:29:31.233Z,0.57
2023-01-04T09:31:57.858Z,0.60
2023-01-04T09:34:24.395Z,0.65
2023-01-04T09:36:52.351Z,0.73
2023-01-04T09:39:23.189Z,0.80
2023-01-04T09:42:04.187Z,0.60
2023-01-04T09:47:30.291Z,0.88
2023-01-04T09:50:13.139Z,0.80
2023-01-04T09:52:45.943Z,0.60
2023-01-04T09:55:39.684Z,0.70
2023-01-04T09:58:27.692Z,0.75
2023-01-04T10:01:16.885Z,0.95
2023-01-04T10:03:50.595Z,0.60
2023-01-04T10:06:17.091Z,0.65
2023-01-04T10:08:44.024Z,0.90
2023-01-04T10:11:33.648Z,0.43
2023-01-04T10:14:30.400Z,0.70
2023-01-04T10:17:15.327Z,0.60
2023-01-04T10:23:52.669Z,0.70
2023-01-04T10:26:26.291Z,0.70
2023-01-04T10:29:27.072Z,0.93
2023-01-04T10:34:30.096Z,0.70
2023-01-04T10:36:59.771Z,0.68
2023-01-04T10:39:33.029Z,0.60
2023-01-04T10:42:25.277Z,0.95
2023-01-04T10:45:15.722Z,0.93
2023-01-04T10:47:59.364Z,0.85
2023-01-04T10:50:47.261Z,0.85
2023-01-04T10:56:25.507Z,0.70
2023-01-04T10:59:05.659Z,0.80
2023-01-04T11:01:40.623Z,0.90
2023-01-04T11:04:19.397Z,0.82
2023-01-04T11:06:50.756Z,0.88
2023-01-04T11:09:33.002Z,1.00
2023-01-04T11:12:02.004Z,0.80
2023-01-04T11:14:35.148Z,0.80
2023-01-04T11:17:06.079Z,0.63
2023-01-04T11:19:33.787Z,0.80
2023-01-04T11:22:20.710Z,0.70
2023-01-04T11:25:32.923Z,1.05
2023-01-04T11:27:47.558Z,0.77
2023-01-04T11:30:21.661Z,0.82
2023-01-04T11:33:11.141Z,1.00
2023-01-04T11:35:46.066Z,0.90
2023-01-04T11:38:15.501Z,0.80
2023-01-04T11:40:53.783Z,1.10
2023-01-04T11:43:23.075Z,1.08
2023-01-04T11:45:55.108Z,1.00
2023-01-04T11:48:33.050Z,0.80
2023-01-04T11:51:00.099Z,0.68
2023-01-04T11:53:37.185Z,0.90
2023-01-04T11:56:20.608Z,0.93
2023-01-04T11:59:08.765Z,0.85
2023-01-04T12:01:44.559Z,0.90
2023-01-04T12:04:14.163Z,0.90
2023-01-04T12:06:50.067Z,0.82
2023-01-04T12:09:20.456Z,0.80
2023-01-04T12:11:52.882Z,0.88
2023-01-04T12:14:34.726Z,0.90
2023-01-04T12:17:12.157Z,0.95
2023-01-04T12:19:41.395Z,0.80
2023-01-04T12:22:40.650Z,0.93
2023-01-04T12:25:30.845Z,2.10
2023-01-04T12:27:57.806Z,1.17
2023-01-04T12:30:46.588Z,0.75
2023-01-04T12:33:31.625Z,0.80
2023-01-04T12:36:02.520Z,0.70
2023-01-04T12:38:52.326Z,0.70
2023-01-04T12:41:20.629Z,0.60
2023-01-04T12:43:49.711Z,0.70
2023-01-04T12:46:47.173Z,0.68
2023-01-04T12:49:25.773Z,0.90
2023-01-04T12:55:00.534Z,0.80
2023-01-04T12:57:37.513Z,0.60
2023-01-04T13:00:09.543Z,0.50
2023-01-04T13:02:36.987Z,0.57
2023-01-04T13:05:54.791Z,0.60
2023-01-04T13:08:11.326Z,0.55
2023-01-04T13:10:47.174Z,0.50
2023-01-04T13:13:32.614Z,0.70
2023-01-04T13:16:41.210Z,0.75
2023-01-04T13:19:23.852Z,0.80
2023-01-04T13:21:52.546Z,0.60
2023-01-04T13:24:23.928Z,0.57
2023-01-04T13:26:51.964Z,0.50
2023-01-04T13:29:21.700Z,0.60
2023-01-04T13:32:02.404Z,0.80
2023-01-04T13:34:33.475Z,0.70
2023-01-04T13:37:06.977Z,0.70
2023-01-04T13:39:34.685Z,0.60
2023-01-04T13:42:02.703Z,0.80
2023-01-04T13:45:22.313Z,0.60
2023-01-04T13:47:56.395Z,0.50
2023-01-04T13:50:39.871Z,0.60
2023-01-04T13:53:08.493Z,0.70
2023-01-04T13:55:38.124Z,0.60
2023-01-04T13:58:07.413Z,0.60
2023-01-04T14:00:51.011Z,0.73
2023-01-04T14:03:32.481Z,0.75
2023-01-04T14:06:13.302Z,0.70
2023-01-04T14:09:00.729Z,0.50
2023-01-04T14:12:05.704Z,0.93
2023-01-04T14:14:46.455Z,0.57
2023-01-04T14:17:34.969Z,0.50
2023-01-04T14:20:24.750Z,0.60
2023-01-04T14:22:54.100Z,0.60
2023-01-04T14:25:36.795Z,0.60
2023-01-04T14:28:18.976Z,0.50
2023-01-04T14:30:47.686Z,0.57
2023-01-04T14:33:20.032Z,0.70
2023-01-04T14:36:02.614Z,0.50
2023-01-04T14:38:29.412Z,0.70
2023-01-04T14:40:56.537Z,0.63
2023-01-04T14:43:46.528Z,0.63
2023-01-04T14:46:13.099Z,0.65
2023-01-04T14:48:39.699Z,0.60
2023-01-04T14:51:07.685Z,0.60
2023-01-04T14:53:34.452Z,0.82
2023-01-04T14:56:00.892Z,0.65
2023-01-04T14:58:27.467Z,0.60
2023-01-04T15:00:55.132Z,0.60
2023-01-04T15:03:21.761Z,0.80
2023-01-04T15:05:48.333Z,0.70
2023-01-04T15:08:14.959Z,0.80
2023-01-04T15:10:41.479Z,0.77
2023-01-04T15:13:08.001Z,0.90
2023-01-04T15:15:34.628Z,0.65
2023-01-04T15:18:01.181Z,0.75
2023-01-04T15:20:28.029Z,0.80
2023-01-04T15:22:54.634Z,0.95
2023-01-04T15:25:21.312Z,0.82
2023-01-04T15:27:47.845Z,0.75
2023-01-04T15:30:14.539Z,0.80
2023-01-04T15:32:41.795Z,1.08
2023-01-04T15:35:08.880Z,0.90
2023-01-04T15:37:35.361Z,1.58
2023-01-04T15:40:03.757Z,0.73
2023-01-04T15:42:49.547Z,0.80
2023-01-04T15:45:16.224Z,0.88
2023-01-04T15:47:42.676Z,0.90
2023-01-04T15:50:09.434Z,1.20
2023-01-04T15:52:35.965Z,1.33
2023-01-04T15:55:02.602Z,0.95
2023-01-04T15:57:29.316Z,1.20
2023-01-04T15:59:55.840Z,1.13
2023-01-04T16:02:22.499Z,1.20
2023-01-04T16:04:49.468Z,1.13
2023-01-04T16:07:16.737Z,0.90
2023-01-04T16:09:43.353Z,0.88
2023-01-04T16:12:29.609Z,0.82
2023-01-04T16:14:56.170Z,1.08
2023-01-04T16:17:22.690Z,1.00
2023-01-04T16:19:49.287Z,1.00
2023-01-04T16:22:15.753Z,1.80
2023-01-04T16:25:12.698Z,1.45
2023-01-04T16:27:35.143Z,1.50
2023-01-04T16:30:04.250Z,1.20
2023-01-04T16:32:30.885Z,1.30
2023-01-04T16:34:57.411Z,1.13
2023-01-04T16:37:27.756Z,1.27
2023-01-04T16:40:09.783Z,1.63
2023-01-04T16:42:39.704Z,1.42
2023-01-04T16:45:07.105Z,1.02
2023-01-04T16:47:41.830Z,1.45
2023-01-04T16:50:09.916Z,1.50
2023-01-04T16:52:36.681Z,1.35
2023-01-04T16:55:03.491Z,1.48
2023-01-04T16:57:30.130Z,1.70
2023-01-04T16:59:56.715Z,1.30
2023-01-04T17:02:23.658Z,1.10
2023-01-04T17:04:55.582Z,1.30
2023-01-04T17:07:22.728Z,1.50
2023-01-04T17:09:49.869Z,1.20
2023-01-04T17:12:46.392Z,1.20
2023-01-04T17:17:49.623Z,1.48
2023-01-04T17:20:16.187Z,1.50
2023-01-04T17:22:42.787Z,0.90
2023-01-04T17:25:09.442Z,1.40
2023-01-04T17:27:36.267Z,1.35
2023-01-04T17:30:04.010Z,2.17
2023-01-04T17:32:30.661Z,1.48
2023-01-04T17:34:58.782Z,1.83
2023-01-04T17:37:26.300Z,1.90
2023-01-04T17:39:52.887Z,1.52
2023-01-04T17:42:19.465Z,1.58
2023-01-04T17:44:47.935Z,1.80
2023-01-04T17:47:14.594Z,1.70
2023-01-04T17:49:41.212Z,1.63
2023-01-04T17:52:08.933Z,2.03
2023-01-04T17:54:36.312Z,1.70
2023-01-04T17:57:03.003Z,1.48
2023-01-04T17:59:29.402Z,1.95
2023-01-04T18:01:56.082Z,2.10
2023-01-04T18:04:22.598Z,2.20
2023-01-04T18:06:49.185Z,2.13
2023-01-04T18:09:20.189Z,2.05
2023-01-04T18:11:49.197Z,2.33
2023-01-04T18:14:15.918Z,2.15
2023-01-04T18:16:58.436Z,2.47
2023-01-04T18:19:27.199Z,2.65
2023-01-04T18:21:54.321Z,2.97
2023-01-04T18:24:38.353Z,3.00
2023-01-04T18:27:24.539Z,3.33
2023-01-04T18:29:53.534Z,2.65
2023-01-04T18:32:20.689Z,2.78
2023-01-04T18:34:47.380Z,3.20
2023-01-04T18:37:15.653Z,3.53
2023-01-04T18:39:42.175Z,3.30
2023-01-04T18:42:09.007Z,3.20
2023-01-04T18:44:36.361Z,3.05
2023-01-04T18:47:04.271Z,2.75
2023-01-04T18:49:31.710Z,2.95
2023-01-04T18:51:58.435Z,3.35
2023-01-04T18:54:24.907Z,2.83
2023-01-04T18:56:58.618Z,2.47
2023-01-04T18:59:28.195Z,3.28
2023-01-04T19:01:57.845Z,3.28
2023-01-04T19:04:24.713Z,3.42
2023-01-04T19:06:51.296Z,2.90
2023-01-04T19:09:17.817Z,2.92
2023-01-04T19:11:45.719Z,3.30
2023-01-04T19:14:12.163Z,3.08
2023-01-04T19:16:38.718Z,7.97
2023-01-04T19:19:05.616Z,5.80
2023-01-04T19:21:32.125Z,3.17
2023-01-04T19:23:59.030Z,3.88
2023-01-04T19:26:25.876Z,2.95
2023-01-04T19:28:52.716Z,3.45
2023-01-04T19:31:21.276Z,3.88
2023-01-04T19:33:48.367Z,4.53
2023-01-04T19:36:17.402Z,3.75
2023-01-04T19:38:43.812Z,3.60
2023-01-04T19:41:19.851Z,3.83
2023-01-04T19:43:46.927Z,3.85
2023-01-04T19:46:14.005Z,3.42
2023-01-04T19:48:41.019Z,4.60
2023-01-04T19:51:16.363Z,3.72
2023-01-04T19:53:44.425Z,3.47
2023-01-04T19:56:12.792Z,3.60
2023-01-04T19:58:39.395Z,3.83
2023-01-04T20:01:06.444Z,3.40
2023-01-04T20:03:33.481Z,4.32
2023-01-04T20:06:05.909Z,3.70
2023-01-04T20:08:33.017Z,3.17
2023-01-04T20:11:01.948Z,4.93
2023-01-04T20:13:29.904Z,3.38
2023-01-04T20:15:56.409Z,4.53
2023-01-04T20:18:26.299Z,3.65
2023-01-04T20:20:53.679Z,4.35
2023-01-04T20:23:23.856Z,4.38
2023-01-04T20:25:52.956Z,4.70
2023-01-04T20:28:22.109Z,3.80
2023-01-04T20:30:48.629Z,3.60
2023-01-04T20:33:15.177Z,3.95
2023-01-04T20:35:44.408Z,3.95
2023-01-04T20:38:12.266Z,4.00
2023-01-04T20:40:39.447Z,3.78
2023-01-04T20:43:24.509Z,3.72
2023-01-04T20:45:51.377Z,3.35
2023-01-04T20:48:17.856Z,2.92
2023-01-04T20:50:44.839Z,3.88
2023-01-04T20:53:11.584Z,3.53
2023-01-04T20:55:43.915Z,4.03
2023-01-04T20:58:12.839Z,4.30
2023-01-04T21:00:40.807Z,3.28
2023-01-04T21:03:09.864Z,4.15
2023-01-04T21:05:41.228Z,3.63
2023-01-04T21:08:08.429Z,3.38
2023-01-04T21:10:36.050Z,3.00
2023-01-04T21:13:03.611Z,3.25
2023-01-04T21:15:30.394Z,3.63
2023-01-04T21:17:57.094Z,3.85
2023-01-04T21:20:24.560Z,2.97
2023-01-04T21:22:51.136Z,3.72
2023-01-04T21:25:17.603Z,4.07
2023-01-04T21:27:44.300Z,3.58
2023-01-04T21:30:11.395Z,3.97
2023-01-04T21:32:38.183Z,3.92
2023-01-04T21:35:05.588Z,4.22
2023-01-04T21:37:32.035Z,3.03
2023-01-04T21:39:58.831Z,3.65
2023-01-04T21:42:25.497Z,3.58
2023-01-04T21:44:56.029Z,4.90
2023-01-04T21:47:22.441Z,3.90
2023-01-04T21:49:49.129Z,4.03
2023-01-04T21:52:15.534Z,3.92
2023-01-04T21:54:42.154Z,3.70
2023-01-04T21:57:08.759Z,3.83
2023-01-04T21:59:36.063Z,3.60
2023-01-04T22:02:03.231Z,4.05
2023-01-04T22:04:30.052Z,4.35
2023-01-04T22:06:56.679Z,3.97
2023-01-04T22:09:23.840Z,3.75
2023-01-04T22:11:50.900Z,3.88
2023-01-04T22:14:18.263Z,3.53
2023-01-04T22:16:44.803Z,3.40
2023-01-04T22:19:13.175Z,3.42
2023-01-04T22:21:39.734Z,3.20
2023-01-04T22:24:06.922Z,3.40
2023-01-04T22:26:34.259Z,3.78
2023-01-04T22:29:01.425Z,3.50
2023-01-04T22:31:28.232Z,3.38
2023-01-04T22:33:54.844Z,4.05
2023-01-04T22:36:23.271Z,3.38
2023-01-04T22:38:54.736Z,4.18
2023-01-04T22:41:25.673Z,4.30
2023-01-04T22:44:00.910Z,3.65
2023-01-04T22:46:28.963Z,3.22
2023-01-04T22:48:56.192Z,3.33
2023-01-04T22:51:24.133Z,4.13
2023-01-04T22:53:54.328Z,3.30
2023-01-04T22:56:22.520Z,3.30
2023-01-04T22:58:54.263Z,3.45
2023-01-04T23:01:27.208Z,3.53
2023-01-04T23:03:54.909Z,3.72
2023-01-04T23:06:22.855Z,2.60
2023-01-04T23:08:58.056Z,3.90
2023-01-04T23:11:25.647Z,3.10
2023-01-04T23:13:52.759Z,3.60
2023-01-04T23:16:19.842Z,3.63
2023-01-04T23:18:50.399Z,3.35
2023-01-04T23:21:16.855Z,3.95
2023-01-04T23:23:44.026Z,3.92
2023-01-04T23:26:16.700Z,4.15
2023-01-04T23:28:44.293Z,3.38
2023-01-04T23:31:13.201Z,3.53
2023-01-04T23:33:39.758Z,3.00
2023-01-04T23:36:14.144Z,3.92
2023-01-04T23:38:42.085Z,3.55
2023-01-04T23:41:09.394Z,3.17
2023-01-04T23:43:37.113Z,3.80
2023-01-04T23:46:17.304Z,3.58
2023-01-04T23:48:44.808Z,4.00
2023-01-04T23:51:14.822Z,3.53
2023-01-04T23:53:41.219Z,3.15
2023-01-04T23:56:14.205Z,3.10
2023-01-04T23:58:40.713Z,3.40
